createdAt,value
2022-08-09T00:00:23.076Z,61
2022-08-09T00:04:00.924Z,63
2022-08-09T00:07:13.476Z,60
2022-08-09T00:10:38.757Z,61
2022-08-09T00:14:04.014Z,60
2022-08-09T00:18:04.903Z,61
2022-08-09T00:20:54.535Z,60
2022-08-09T00:24:19.922Z,59
2022-08-09T00:27:44.994Z,60
2022-08-09T00:31:30.843Z,62
2022-08-09T00:34:35.482Z,60
2022-08-09T00:38:00.747Z,62
2022-08-09T00:44:09.470Z,62
2022-08-09T00:44:51.201Z,63
2022-08-09T00:48:19.418Z,64
2022-08-09T00:51:42.773Z,63
2022-08-09T00:55:06.940Z,63
2022-08-09T00:58:32.242Z,63
2022-08-09T01:01:57.520Z,63
2022-08-09T01:05:22.772Z,61
2022-08-09T01:08:48.747Z,63
2022-08-09T01:12:13.280Z,64
2022-08-09T01:15:41.003Z,62
2022-08-09T01:19:04.573Z,63
2022-08-09T01:22:29.021Z,62
2022-08-09T01:25:54.253Z,62
2022-08-09T01:29:19.511Z,63
2022-08-09T01:32:45.561Z,62
2022-08-09T01:36:10.029Z,62
2022-08-09T01:39:35.810Z,63
2022-08-09T01:43:00.517Z,64
2022-08-09T01:46:26.712Z,63
2022-08-09T01:49:54.593Z,64
2022-08-09T01:53:19.099Z,64
2022-08-09T01:56:41.485Z,64
2022-08-09T02:00:09.154Z,64
2022-08-09T02:03:31.957Z,63
2022-08-09T02:06:58.887Z,62
2022-08-09T02:10:28.515Z,64
2022-08-09T02:13:55.520Z,64
2022-08-09T02:17:14.921Z,63
2022-08-09T02:20:38.168Z,64
2022-08-09T02:24:03.428Z,64
2022-08-09T02:27:43.432Z,65
2022-08-09T02:30:53.941Z,64
2022-08-09T02:34:25.676Z,65
2022-08-09T02:37:45.249Z,65
2022-08-09T02:41:09.650Z,63
2022-08-09T02:44:34.961Z,63
2022-08-09T02:48:00.168Z,63
2022-08-09T02:51:26.462Z,63
2022-08-09T02:54:51.398Z,65
2022-08-09T02:58:33.045Z,64
2022-08-09T03:01:42.957Z,64
2022-08-09T03:05:06.357Z,64
2022-08-09T03:08:31.588Z,65
2022-08-09T03:12:05.175Z,65
2022-08-09T03:15:22.860Z,65
2022-08-09T03:18:47.361Z,64
2022-08-09T03:22:19.845Z,65
2022-08-09T03:25:57.222Z,65
2022-08-09T03:29:03.080Z,66
2022-08-09T03:32:28.320Z,65
2022-08-09T03:36:12.147Z,66
2022-08-09T03:39:18.842Z,66
2022-08-09T03:42:44.027Z,65
2022-08-09T03:46:19.803Z,65
2022-08-09T03:49:35.506Z,66
2022-08-09T03:52:59.804Z,66
2022-08-09T03:56:25.034Z,67
2022-08-09T03:59:54.023Z,66
2022-08-09T04:03:19.804Z,67
2022-08-09T04:06:40.764Z,66
2022-08-09T04:10:06.009Z,67
2022-08-09T04:13:45.184Z,67
2022-08-09T04:16:57.350Z,67
2022-08-09T04:20:21.771Z,67
2022-08-09T04:23:52.493Z,66
2022-08-09T04:27:12.230Z,66
2022-08-09T04:30:37.459Z,66
2022-08-09T04:34:02.703Z,65
2022-08-09T04:37:42.423Z,66
2022-08-09T04:40:54.292Z,66
2022-08-09T04:44:18.424Z,66
2022-08-09T04:47:45.277Z,69
2022-08-09T04:51:08.924Z,66
2022-08-09T04:54:34.172Z,66
2022-08-09T04:58:01.880Z,66
2022-08-09T05:01:24.628Z,66
2022-08-09T05:04:55.098Z,66
2022-08-09T05:08:15.264Z,68
2022-08-09T05:11:40.353Z,67
2022-08-09T05:15:11.348Z,64
2022-08-09T05:18:37.218Z,65
2022-08-09T05:21:56.434Z,67
2022-08-09T05:25:21.397Z,66
2022-08-09T05:28:46.671Z,66
2022-08-09T05:32:11.932Z,65
2022-08-09T05:35:39.028Z,66
2022-08-09T05:39:02.495Z,63
2022-08-09T05:42:28.213Z,61
2022-08-09T05:45:55.763Z,63
2022-08-09T05:49:34.061Z,64
2022-08-09T05:52:43.463Z,61
2022-08-09T05:56:08.702Z,61
2022-08-09T05:59:33.975Z,61
2022-08-09T06:02:59.290Z,59
2022-08-09T06:06:24.486Z,60
2022-08-09T06:09:54.286Z,60
2022-08-09T06:13:19.126Z,58
2022-08-09T06:16:40.260Z,57
2022-08-09T06:20:05.497Z,57
2022-08-09T06:23:56.094Z,57
2022-08-09T06:26:55.973Z,56
2022-08-09T06:30:21.218Z,53
2022-08-09T06:33:48.841Z,53
2022-08-09T06:37:11.747Z,54
2022-08-09T06:40:37.034Z,54
2022-08-09T06:44:02.234Z,51
2022-08-09T06:47:29.908Z,52
2022-08-09T06:50:52.729Z,53
2022-08-09T06:54:17.971Z,51
2022-08-09T06:58:02.432Z,51
2022-08-09T07:01:08.453Z,53
2022-08-09T07:04:33.733Z,52
2022-08-09T07:08:01.713Z,54
2022-08-09T07:11:25.476Z,53
2022-08-09T07:14:50.643Z,52
2022-08-09T07:18:14.983Z,52
2022-08-09T07:21:40.058Z,51
2022-08-09T07:25:09.368Z,52
2022-08-09T07:28:30.694Z,52
2022-08-09T07:31:55.944Z,52
2022-08-09T07:35:21.217Z,51
2022-08-09T07:38:52.555Z,52
2022-08-09T07:42:11.814Z,51
2022-08-09T07:45:40.511Z,50
2022-08-09T07:49:02.385Z,50
2022-08-09T07:52:27.745Z,49
2022-08-09T07:56:02.979Z,49
2022-08-09T07:59:25.767Z,49
2022-08-09T08:02:43.671Z,49
2022-08-09T08:06:08.856Z,49
2022-08-09T08:09:35.375Z,48
2022-08-09T08:12:59.459Z,46
2022-08-09T08:16:30.137Z,46
2022-08-09T08:19:50.060Z,47
2022-08-09T08:23:16.477Z,46
2022-08-09T08:26:42.312Z,46
2022-08-09T08:30:05.974Z,45
2022-08-09T08:33:40.920Z,45
2022-08-09T08:36:56.574Z,46
2022-08-09T08:40:21.886Z,46
2022-08-09T08:43:47.208Z,46
2022-08-09T08:47:13.391Z,46
2022-08-09T08:50:37.812Z,45
2022-08-09T08:54:04.834Z,46
2022-08-09T08:57:28.406Z,46
2022-08-09T09:00:54.488Z,46
2022-08-09T09:04:19.043Z,47
2022-08-09T09:07:44.659Z,46
2022-08-09T09:11:13.429Z,47
2022-08-09T09:14:34.959Z,45
2022-08-09T09:18:00.271Z,44
2022-08-09T09:21:26.270Z,44
2022-08-09T09:24:51.083Z,43
2022-08-09T09:28:21.248Z,42
2022-08-09T09:32:02.029Z,43
2022-08-09T09:35:09.203Z,43
2022-08-09T09:38:36.499Z,44
2022-08-09T09:41:58.735Z,43
2022-08-09T09:45:25.674Z,43
2022-08-09T09:48:49.653Z,43
2022-08-09T09:52:16.872Z,43
2022-08-09T09:55:40.410Z,43
2022-08-09T09:59:05.772Z,41
2022-08-09T10:02:31.309Z,42
2022-08-09T10:06:01.594Z,41
2022-08-09T10:09:23.779Z,41
2022-08-09T10:12:49.757Z,41
2022-08-09T10:16:55.279Z,41
2022-08-09T10:19:37.870Z,41
2022-08-09T10:23:03.220Z,40
2022-08-09T10:26:28.611Z,40
2022-08-09T10:30:29.777Z,39
2022-08-09T10:34:05.097Z,39
2022-08-09T10:36:58.572Z,38
2022-08-09T10:40:32.434Z,38
2022-08-09T10:43:50.597Z,39
2022-08-09T10:47:28.180Z,39
2022-08-09T10:50:39.961Z,39
2022-08-09T10:54:10.059Z,38
2022-08-09T10:57:33.495Z,38
2022-08-09T11:01:35.860Z,38
2022-08-09T11:04:28.409Z,38
2022-08-09T11:07:53.996Z,38
2022-08-09T11:11:15.533Z,38
2022-08-09T11:14:40.902Z,37
2022-08-09T11:18:06.275Z,38
2022-08-09T11:21:31.672Z,38
2022-08-09T11:24:57.025Z,39
2022-08-09T11:28:27.670Z,38
2022-08-09T11:31:48.954Z,39
2022-08-09T11:35:13.230Z,38
2022-08-09T11:38:41.257Z,38
2022-08-09T11:42:03.976Z,38
2022-08-09T11:45:37.626Z,38
2022-08-09T11:48:54.641Z,40
2022-08-09T11:52:49.669Z,37
2022-08-09T11:55:51.840Z,37
2022-08-09T11:59:10.776Z,38
2022-08-09T12:02:37.041Z,38
2022-08-09T12:06:01.469Z,37
2022-08-09T12:09:26.876Z,37
2022-08-09T12:12:52.858Z,38
2022-08-09T12:16:25.620Z,38
2022-08-09T12:19:42.966Z,37
2022-08-09T12:23:08.375Z,37
2022-08-09T12:26:33.807Z,37
2022-08-09T12:30:04.448Z,37
2022-08-09T12:33:24.463Z,37
2022-08-09T12:36:49.825Z,38
2022-08-09T12:40:15.155Z,38
2022-08-09T12:44:04.494Z,38
2022-08-09T12:47:05.833Z,37
2022-08-09T12:50:31.123Z,37
2022-08-09T12:53:56.447Z,37
2022-08-09T12:57:21.873Z,36
2022-08-09T13:00:47.279Z,37
2022-08-09T13:04:33.382Z,37
2022-08-09T13:07:50.886Z,36
2022-08-09T13:11:13.527Z,36
2022-08-09T13:14:38.767Z,36
2022-08-09T13:18:04.018Z,36
2022-08-09T13:22:34.732Z,36
2022-08-09T13:24:53.981Z,36
2022-08-09T13:28:10.617Z,36
2022-08-09T13:32:18.234Z,36
2022-08-09T13:35:01.375Z,36
2022-08-09T13:38:33.081Z,35
2022-08-09T13:42:00.565Z,36
2022-08-09T13:45:17.538Z,36
2022-08-09T13:48:42.985Z,36
2022-08-09T13:52:09.125Z,37
2022-08-09T13:55:33.824Z,37
2022-08-09T13:59:00.272Z,36
2022-08-09T14:02:26.205Z,37
2022-08-09T14:05:57.566Z,36
2022-08-09T14:09:16.387Z,37
2022-08-09T14:12:41.940Z,37
2022-08-09T14:16:10.786Z,36
2022-08-09T14:19:33.430Z,37
2022-08-09T14:22:58.099Z,44
2022-08-09T14:26:25.254Z,37
2022-08-09T15:04:14.786Z,36
2022-08-09T15:07:40.113Z,37
2022-08-09T15:11:07.161Z,36
2022-08-09T15:14:33.787Z,37
2022-08-09T15:17:56.122Z,37
2022-08-09T15:21:54.474Z,38
2022-08-09T15:24:47.640Z,36
2022-08-09T15:28:24.046Z,37
2022-08-09T15:31:41.093Z,37
2022-08-09T15:35:17.747Z,37
2022-08-09T15:38:27.974Z,37
2022-08-09T15:41:53.300Z,37
2022-08-09T15:45:21.552Z,37
2022-08-09T15:48:43.915Z,37
2022-08-09T15:52:09.221Z,37
2022-08-09T15:56:04.447Z,38
2022-08-09T15:58:59.843Z,38
2022-08-09T16:02:27.038Z,38
2022-08-09T16:05:54.777Z,38
2022-08-09T16:09:16.292Z,38
2022-08-09T16:12:50.088Z,38
2022-08-09T16:16:11.902Z,38
2022-08-09T16:19:36.621Z,38
2022-08-09T16:22:57.917Z,37
2022-08-09T16:26:34.366Z,38
2022-08-09T16:29:50.101Z,38
2022-08-09T16:33:15.871Z,37
2022-08-09T16:36:40.027Z,37
2022-08-09T16:40:06.035Z,36
2022-08-09T16:43:30.668Z,37
2022-08-09T16:47:02.090Z,37
2022-08-09T16:50:30.884Z,38
2022-08-09T16:54:16.289Z,39
2022-08-09T16:57:11.946Z,39
2022-08-09T17:00:38.758Z,38
2022-08-09T17:04:02.583Z,38
2022-08-09T17:08:42.639Z,38
2022-08-09T17:10:53.217Z,38
2022-08-09T17:14:26.822Z,39
2022-08-09T17:17:50.853Z,38
2022-08-09T17:21:09.194Z,39
2022-08-09T17:24:34.516Z,38
2022-08-09T17:27:59.827Z,38
2022-08-09T17:31:25.151Z,39
2022-08-09T17:35:01.695Z,39
2022-08-09T17:38:32.679Z,40
2022-08-09T17:41:41.125Z,40
2022-08-09T17:45:06.725Z,40
2022-08-09T17:48:31.857Z,40
2022-08-09T17:51:57.201Z,40
2022-08-09T17:55:22.539Z,40
2022-08-09T17:58:47.867Z,40
2022-08-09T18:02:19.567Z,40
2022-08-09T18:05:38.958Z,40
2022-08-09T18:09:03.843Z,40
2022-08-09T18:12:30.156Z,40
2022-08-09T18:16:05.723Z,41
2022-08-09T18:20:53.465Z,41
2022-08-09T18:22:50.916Z,41
2022-08-09T18:26:11.153Z,42
2022-08-09T18:30:37.356Z,42
2022-08-09T18:33:05.158Z,42
2022-08-09T18:36:32.246Z,43
2022-08-09T18:39:55.523Z,43
2022-08-09T18:43:20.817Z,43
2022-08-09T18:46:59.911Z,43
2022-08-09T18:50:12.192Z,44
2022-08-09T18:53:57.065Z,44
2022-08-09T18:57:05.690Z,44
2022-08-09T19:00:27.840Z,45
2022-08-09T19:03:54.861Z,45
2022-08-09T19:07:18.822Z,45
2022-08-09T19:10:44.368Z,45
2022-08-09T19:14:09.825Z,46
2022-08-09T19:17:39.682Z,46
2022-08-09T19:21:00.845Z,46
2022-08-09T19:24:31.151Z,47
2022-08-09T19:27:52.465Z,47
2022-08-09T19:31:18.063Z,46
2022-08-09T19:34:46.727Z,46
2022-08-09T19:38:09.468Z,46
2022-08-09T19:41:35.532Z,46
2022-08-09T19:45:00.720Z,46
2022-08-09T19:48:28.300Z,46
2022-08-09T19:51:55.133Z,47
2022-08-09T19:55:19.475Z,46
2022-08-09T19:58:54.026Z,47
2022-08-09T20:02:15.654Z,47
2022-08-09T20:05:46.235Z,47
2022-08-09T20:08:59.917Z,47
2022-08-09T20:12:27.295Z,47
2022-08-09T20:16:32.291Z,48
2022-08-09T20:19:43.190Z,48
2022-08-09T20:22:42.830Z,48
2022-08-09T20:26:06.887Z,48
2022-08-09T20:29:37.130Z,48
2022-08-09T20:32:57.134Z,49
2022-08-09T20:36:22.459Z,49
2022-08-09T20:40:14.555Z,49
2022-08-09T20:43:19.275Z,49
2022-08-09T20:46:42.481Z,49
2022-08-09T20:50:03.691Z,49
2022-08-09T20:53:35.935Z,50
2022-08-09T20:56:54.331Z,49
2022-08-09T21:00:31.504Z,51
2022-08-09T21:04:08.577Z,51
2022-08-09T21:07:11.165Z,51
2022-08-09T21:10:35.732Z,50
2022-08-09T21:14:01.019Z,52
2022-08-09T21:18:12.233Z,50
2022-08-09T21:20:53.879Z,51
2022-08-09T21:24:19.311Z,50
2022-08-09T21:27:50.690Z,50
2022-08-09T21:31:13.421Z,50
2022-08-09T21:34:33.080Z,51
2022-08-09T21:37:59.648Z,51
2022-08-09T21:41:25.635Z,51
2022-08-09T21:44:49.066Z,50
2022-08-09T21:48:14.389Z,51
2022-08-09T21:51:43.721Z,52
2022-08-09T21:55:05.106Z,51
2022-08-09T21:58:31.229Z,51
2022-08-09T22:01:59.595Z,51
2022-08-09T22:05:23.106Z,53
2022-08-09T22:08:46.346Z,52
2022-08-09T22:12:18.214Z,53
2022-08-09T22:15:37.199Z,54
2022-08-09T22:19:02.306Z,54
2022-08-09T22:22:27.619Z,54
2022-08-09T22:26:05.019Z,54
2022-08-09T22:29:18.303Z,53
2022-08-09T22:32:43.648Z,53
2022-08-09T22:36:09.194Z,54
2022-08-09T22:39:47.489Z,54
2022-08-09T22:42:59.772Z,54
2022-08-09T22:48:06.330Z,54
2022-08-09T22:49:51.879Z,54
2022-08-09T22:53:15.734Z,54
2022-08-09T22:56:41.425Z,54
2022-08-09T23:00:06.480Z,54
2022-08-09T23:04:03.188Z,55
2022-08-09T23:06:57.320Z,55
2022-08-09T23:10:22.658Z,56
2022-08-09T23:13:48.082Z,55
2022-08-09T23:17:13.420Z,55
2022-08-09T23:20:38.716Z,55
2022-08-09T23:24:05.842Z,55
2022-08-09T23:27:29.522Z,56
2022-08-09T23:30:54.951Z,56
2022-08-09T23:34:20.314Z,57
2022-08-09T23:37:45.716Z,58
2022-08-09T23:41:11.148Z,57
2022-08-09T23:44:36.569Z,57
2022-08-09T23:48:05.475Z,57
2022-08-09T23:51:27.266Z,57
2022-08-09T23:54:52.615Z,56
2022-08-09T23:58:25.621Z,58
